createdAt,value
2019-04-01T00:04:50.140Z,5.90
2019-04-01T00:09:48.591Z,5.00
2019-04-01T00:14:48.623Z,5.10
2019-04-01T00:19:47.224Z,4.90
2019-04-01T00:22:16.569Z,4.80
2019-04-01T00:27:15.013Z,4.80
2019-04-01T00:32:13.462Z,4.90
2019-04-01T00:34:42.815Z,4.90
2019-04-01T00:39:41.342Z,4.70
2019-04-01T00:42:12.332Z,4.70
2019-04-01T00:44:41.691Z,4.80
2019-04-01T00:57:07.453Z,4.50
2019-04-01T01:04:35.296Z,4.50
2019-04-01T01:09:33.753Z,4.40
2019-04-01T01:14:32.210Z,4.30
2019-04-01T01:17:01.571Z,4.20
2019-04-01T01:26:59.921Z,4.10
2019-04-01T01:31:58.347Z,4.00
2019-04-01T01:36:56.837Z,3.90
2019-04-01T01:39:26.208Z,3.90
2019-04-01T01:44:24.640Z,3.80
2019-04-01T01:51:52.177Z,3.80
2019-04-01T01:54:21.522Z,3.70
2019-04-01T01:56:50.877Z,3.70
2019-04-01T02:01:49.431Z,3.80
2019-04-01T02:04:18.807Z,3.60
2019-04-01T02:11:49.533Z,3.70
2019-04-01T02:14:18.897Z,3.70
2019-04-01T02:24:15.542Z,3.60
2019-04-01T02:29:14.034Z,3.40
2019-04-01T02:34:12.710Z,3.40
2019-04-01T02:36:42.064Z,3.50
2019-04-01T02:39:11.442Z,3.50
2019-04-01T02:59:04.433Z,3.30
2019-04-01T03:01:33.789Z,3.30
2019-04-01T03:04:03.123Z,3.40
2019-04-01T03:06:32.547Z,3.30
2019-04-01T03:09:01.881Z,3.40
2019-04-01T03:11:31.236Z,3.40
2019-04-01T03:14:00.629Z,3.40
2019-04-01T03:18:59.199Z,3.50
2019-04-01T03:21:28.509Z,3.20
2019-04-01T03:31:25.237Z,3.10
2019-04-01T03:33:54.578Z,3.10
2019-04-01T03:36:23.935Z,3.30
2019-04-01T03:38:53.269Z,3.10
2019-04-01T03:41:22.627Z,3.20
2019-04-01T03:46:21.042Z,3.00
2019-04-01T03:51:19.510Z,3.10
2019-04-01T03:56:17.926Z,3.00
2019-04-01T03:58:47.287Z,3.20
2019-04-01T04:03:45.990Z,3.00
2019-04-01T04:08:44.450Z,3.00
2019-04-01T04:11:13.771Z,3.00
2019-04-01T04:23:39.495Z,2.30
2019-04-01T04:28:37.899Z,2.90
2019-04-01T04:33:36.343Z,2.80
2019-04-01T04:38:35.258Z,2.90
2019-04-01T04:41:04.646Z,2.10
2019-04-01T04:53:31.220Z,2.70
2019-04-01T04:56:00.613Z,2.80
2019-04-01T05:00:59.185Z,2.60
2019-04-01T05:08:26.923Z,2.40
2019-04-01T05:18:23.971Z,2.50
2019-04-01T05:23:23.289Z,2.60
2019-04-01T05:28:23.794Z,2.70
2019-04-01T05:30:54.313Z,2.90
2019-04-01T05:38:22.267Z,3.40
2019-04-01T05:48:19.639Z,3.60
2019-04-01T05:53:18.213Z,3.50
2019-04-01T05:55:47.864Z,4.10
2019-04-01T06:00:48.258Z,4.00
2019-04-01T06:05:46.833Z,4.10
2019-04-01T06:08:16.342Z,4.40
2019-04-01T06:13:14.973Z,4.70
2019-04-01T06:15:44.502Z,4.80
2019-04-01T06:20:43.420Z,5.10
2019-04-01T06:30:40.909Z,5.50
2019-04-01T06:35:39.456Z,5.50
2019-04-01T06:38:08.923Z,6.20
2019-04-01T06:55:33.706Z,6.30
2019-04-01T06:58:03.390Z,6.40
2019-04-01T07:03:02.300Z,6.50
2019-04-01T07:05:31.869Z,6.30
2019-04-01T07:08:01.433Z,6.20
2019-04-01T07:13:00.227Z,6.00
2019-04-01T07:22:59.741Z,5.60
2019-04-01T07:28:00.603Z,6.10
2019-04-01T07:30:30.129Z,5.80
2019-04-01T07:35:29.070Z,5.70
2019-04-01T07:37:59.838Z,6.00
2019-04-01T07:40:29.406Z,6.00
2019-04-01T07:42:59.272Z,6.10
2019-04-01T07:52:56.512Z,6.10
2019-04-01T07:57:55.345Z,6.30
2019-04-01T08:00:24.782Z,6.40
2019-04-01T08:05:26.079Z,6.80
2019-04-01T08:07:56.506Z,6.90
2019-04-01T08:10:25.875Z,6.90
2019-04-01T08:12:55.363Z,6.60
2019-04-01T08:15:24.777Z,6.90
2019-04-01T08:22:59.603Z,6.70
2019-04-01T08:30:27.416Z,6.90
2019-04-01T08:42:54.515Z,7.30
2019-04-01T08:55:21.806Z,7.30
2019-04-01T09:02:50.107Z,7.70
2019-04-01T09:10:19.888Z,7.50
2019-04-01T09:15:19.106Z,7.50
2019-04-01T09:27:45.344Z,7.60
2019-04-01T09:30:18.527Z,7.90
2019-04-01T09:35:16.098Z,7.70
2019-04-01T09:37:45.701Z,8.00
2019-04-01T09:40:15.309Z,7.90
2019-04-01T09:42:44.721Z,8.00
2019-04-01T09:45:16.020Z,7.70
2019-04-01T09:47:45.520Z,8.00
2019-04-01T10:00:12.912Z,7.80
2019-04-01T10:02:42.283Z,7.80
2019-04-01T10:10:12.675Z,8.00
2019-04-01T10:12:42.446Z,8.30
2019-04-01T10:27:38.710Z,7.90
2019-04-01T10:30:09.522Z,8.70
2019-04-01T10:32:38.934Z,8.90
2019-04-01T10:35:09.883Z,8.60
2019-04-01T10:37:39.339Z,8.60
2019-04-01T10:40:09.128Z,8.30
2019-04-01T10:42:38.937Z,9.00
2019-04-01T10:45:10.080Z,8.90
2019-04-01T10:50:10.681Z,9.00
2019-04-01T10:52:43.799Z,8.80
2019-04-01T10:55:11.442Z,9.00
2019-04-01T10:57:43.502Z,9.00
2019-04-01T11:02:41.746Z,9.10
2019-04-01T11:05:11.527Z,9.20
2019-04-01T11:07:40.888Z,9.10
2019-04-01T11:12:41.410Z,8.50
2019-04-01T11:27:37.540Z,9.20
2019-04-01T11:35:08.341Z,9.40
2019-04-01T11:37:37.888Z,9.60
2019-04-01T11:40:11.285Z,9.50
2019-04-01T11:45:10.782Z,9.30
2019-04-01T11:50:09.573Z,9.70
2019-04-01T11:55:09.696Z,9.90
2019-04-01T12:00:13.422Z,9.90
2019-04-01T12:02:43.180Z,9.80
2019-04-01T12:05:12.709Z,9.80
2019-04-01T12:07:42.113Z,9.90
2019-04-01T12:12:41.207Z,10.00
2019-04-01T12:15:12.435Z,10.00
2019-04-01T12:22:45.301Z,10.10
2019-04-01T12:27:41.363Z,10.00
2019-04-01T12:30:11.128Z,10.20
2019-04-01T12:32:40.891Z,10.30
2019-04-01T12:37:39.656Z,10.30
2019-04-01T12:40:09.276Z,10.00
2019-04-01T12:42:38.789Z,10.30
2019-04-01T12:47:37.531Z,10.50
2019-04-01T12:55:08.179Z,10.20
2019-04-01T12:57:37.611Z,10.30
2019-04-01T13:00:09.997Z,10.50
2019-04-01T13:02:39.419Z,10.50
2019-04-01T13:10:08.648Z,10.70
2019-04-01T13:12:38.061Z,10.70
2019-04-01T13:22:38.028Z,10.80
2019-04-01T13:25:08.156Z,10.90
2019-04-01T13:27:37.599Z,10.80
2019-04-01T13:32:36.890Z,10.80
2019-04-01T13:37:36.478Z,10.90
2019-04-01T13:40:07.095Z,10.90
2019-04-01T13:42:36.717Z,11.30
2019-04-01T13:52:36.757Z,11.20
2019-04-01T14:00:06.683Z,11.10
2019-04-01T14:05:07.280Z,11.30
2019-04-01T14:07:37.818Z,11.10
2019-04-01T14:10:08.785Z,11.10
2019-04-01T14:15:09.031Z,11.10
2019-04-01T14:20:08.553Z,11.20
2019-04-01T14:37:37.690Z,11.20
2019-04-01T14:40:09.350Z,11.50
2019-04-01T14:45:09.893Z,11.60
2019-04-01T14:55:11.008Z,11.60
2019-04-01T15:00:12.832Z,11.50
2019-04-01T15:02:42.301Z,11.90
2019-04-01T15:05:11.883Z,11.90
2019-04-01T15:10:10.948Z,11.60
2019-04-01T15:12:40.372Z,11.90
2019-04-01T15:17:39.491Z,12.10
2019-04-01T15:20:09.465Z,11.80
2019-04-01T15:22:38.960Z,11.70
2019-04-01T15:30:09.336Z,11.80
2019-04-01T15:32:38.812Z,11.50
2019-04-01T15:37:37.605Z,11.50
2019-04-01T15:40:10.036Z,11.00
2019-04-01T15:45:08.901Z,11.60
2019-04-01T15:50:09.305Z,11.40
2019-04-01T15:57:38.268Z,11.60
2019-04-01T16:00:09.191Z,11.90
2019-04-01T16:05:08.538Z,11.60
2019-04-01T16:07:41.461Z,11.50
2019-04-01T16:10:09.333Z,11.40
2019-04-01T16:17:38.687Z,11.60
2019-04-01T16:22:37.715Z,11.40
2019-04-01T16:27:36.862Z,11.30
2019-04-01T16:30:08.414Z,11.30
2019-04-01T16:32:37.983Z,11.30
2019-04-01T16:40:07.294Z,11.30
2019-04-01T16:50:10.181Z,11.10
2019-04-01T16:52:39.584Z,11.20
2019-04-01T16:57:40.793Z,11.00
2019-04-01T17:05:12.041Z,11.20
2019-04-01T17:12:43.256Z,10.90
2019-04-01T17:17:42.062Z,11.00
2019-04-01T17:20:11.878Z,11.00
2019-04-01T17:22:41.309Z,10.70
2019-04-01T17:30:14.039Z,10.70
2019-04-01T17:32:43.728Z,10.60
2019-04-01T17:35:14.109Z,10.60
2019-04-01T17:45:25.893Z,10.50
2019-04-01T17:47:55.561Z,10.50
2019-04-01T17:52:54.398Z,10.30
2019-04-01T18:00:32.128Z,10.10
2019-04-01T18:05:30.977Z,10.00
2019-04-01T18:08:00.378Z,10.00
2019-04-01T18:10:30.082Z,9.90
2019-04-01T18:17:58.573Z,9.80
2019-04-01T18:20:27.974Z,9.70
2019-04-01T18:25:26.925Z,9.80
2019-04-01T18:27:56.338Z,9.40
2019-04-01T18:32:55.570Z,9.60
2019-04-01T18:35:25.491Z,9.70
2019-04-01T18:37:55.123Z,9.60
2019-04-01T18:40:32.556Z,9.30
2019-04-01T18:50:24.387Z,9.20
2019-04-01T18:52:53.863Z,9.10
2019-04-01T19:00:22.419Z,9.30
2019-04-01T19:10:20.865Z,9.00
2019-04-01T19:15:19.578Z,9.00
2019-04-01T19:27:46.561Z,9.00
2019-04-01T19:30:18.056Z,8.70
2019-04-01T19:35:17.028Z,8.70
2019-04-01T19:37:46.586Z,8.50
2019-04-01T19:40:16.265Z,8.50
2019-04-01T20:22:44.026Z,7.80
2019-04-01T20:27:44.126Z,8.00
2019-04-01T20:30:14.332Z,8.00
2019-04-01T20:32:44.017Z,8.10
2019-04-01T20:35:23.273Z,7.70
2019-04-01T20:40:15.756Z,7.90
2019-04-01T20:42:46.378Z,8.00
2019-04-01T20:47:45.639Z,7.90
2019-04-01T20:55:14.439Z,7.60
2019-04-01T21:02:42.619Z,7.50
2019-04-01T21:12:40.141Z,7.20
2019-04-01T21:17:38.930Z,7.20
2019-04-01T21:20:09.355Z,7.10
2019-04-01T21:27:37.300Z,7.20
2019-04-01T21:30:11.492Z,7.20
2019-04-01T21:32:40.978Z,7.00
2019-04-01T21:35:10.770Z,6.90
2019-04-01T21:40:09.890Z,6.80
2019-04-01T21:42:39.262Z,6.90
2019-04-01T21:50:08.493Z,6.70
2019-04-01T21:52:38.073Z,6.80
2019-04-01T21:55:08.554Z,6.80
2019-04-01T21:57:38.064Z,6.70
2019-04-01T22:00:17.995Z,6.70
2019-04-01T22:02:47.161Z,6.60
2019-04-01T22:07:45.792Z,6.60
2019-04-01T22:10:15.256Z,6.70
2019-04-01T22:15:14.036Z,6.50
2019-04-01T22:17:43.902Z,6.70
2019-04-01T22:20:13.470Z,6.60
2019-04-01T22:30:11.824Z,6.40
2019-04-01T22:37:40.766Z,6.30
2019-04-01T22:40:10.499Z,6.20
2019-04-01T22:42:39.893Z,6.30
2019-04-01T22:47:38.520Z,6.30
2019-04-01T22:55:07.351Z,6.20
2019-04-01T23:02:35.767Z,6.00
2019-04-01T23:05:08.347Z,6.10
2019-04-01T23:10:08.628Z,6.20
2019-04-01T23:15:09.780Z,5.90
2019-04-01T23:17:39.203Z,5.80
2019-04-01T23:22:37.888Z,5.70
2019-04-01T23:25:08.071Z,5.80
2019-04-01T23:27:37.540Z,6.10
2019-04-01T23:35:08.156Z,5.60
2019-04-01T23:37:38.432Z,5.60
2019-04-01T23:40:08.463Z,5.80
2019-04-01T23:45:08.466Z,5.70
2019-04-01T23:57:37.785Z,5.30
